الصفحة الرئيسية
METAR-TAF:

METAR-TAF

مطار :

مطار عبيد أماني كرومي الدولي

زنجبار, تنزانيا

دائرة عرض: 06-13S, خط طول: 039-13E, ارتفاع: 15 متر

مراقبة الطقس الحالي

تاريخ ووقت الإصدار 1ساعة و 2 دقيقة قبل الساعة 06:00UTC
ريح 12 عقدة من الجنوب الغربي
درجة الحرارة 26°درجة مئوية
الرطوبة 84%
ضغط 1018 hPa
الرؤية 10 كم أو أكثر
غيوم قليلة على ارتفاع 1600 قدم
غيوم متفرقة على ارتفاع 8000 قدم

METAR: HTZA 160600Z 23012KT 9999 FEW016 SCT080 26/23 Q1018 NOSIG

زمن: 10:02 (07:02 UTC)

توقعات

تاريخ ووقت الإصدار 2ساعات و 2 دقيقة قبل الساعة 05:00UTC
التوقعات صالحة من16 الساعة 06 UTC إلى 17 الساعة 06 UTC
ريح 10 عقدة من الجنوب/الجنوب الغربي
الرؤية 10 كم أو أكثر
غيوم متفرقة على ارتفاع 1800 قدم
أصبح
من 16 الساعة 10 UTC إلى 16 الساعة 12 UTC
ريح 15 عقدة من الجنوب/الجنوب الشرقي
أصبح
من 16 الساعة 18 UTC إلى 16 الساعة 20 UTC
ريح 5 عقدة من الجنوب/الجنوب الشرقي
أصبح
من 17 الساعة 02 UTC إلى 17 الساعة 04 UTC
ريح 10 عقدة من الجنوب/الجنوب الغربي

TAF: HTZA 160500Z 1606/1706 21010KT 9999 SCT018 BECMG 1610/1612 15015KT BECMG 1618/1620 15005KT BECMG 1702/1704 21010KT

أرصاد الطقس والتوقعات من أكثر من 4000 مطار (تقارير الطقس للمطار METAR والتنبؤ بالطقس بالمطارTAF).

المحطات المتاحة هي النقط الصفراء والحمراء على الخريطة.

حرك المؤشر فوق النقطة لمعرفة اسم المحطة.

ثم انقر لمعرفة أرصاد وتوقعات الطقس.

لتغيير الخارطة: اضغط على الأزرار الخضراء مع رمز الصليب الأسود للتكبير. على الزر الأخضر مع شرطة للتصغير، أو على الأسهم الخضراء للخرائط المجاورة.


METAR-TAF: